Terminal Aerodrome Forecast
Issued by NWS Charleston, WV

Current Version | Previous Version | Graphics & Text | Print | Product List | Glossary On
Versions: 1 2 3 4 5 6 7 8 9 10 11 12 13 14 15 16 17 18 19 20 21 22 23 24
701
FTUS41 KRLX 232212 AAB
TAFPKB
TAF AMD
KPKB 232212Z 2322/2418 21009KT 3SM SHRA BKN015 OVC025
      TEMPO 2322/2324 1/2SM TSRA OVC010CB
     FM240000 21005KT 2SM SHRA BR VCTS OVC008CB
     FM240200 24005KT 3SM SHRA BR OVC007
     FM240400 26005KT P6SM -SHRA OVC008
     FM240600 27004KT P6SM BKN015
     FM241500 27007KT P6SM BKN040=

USA.gov is the U.S. government's official web portal to all federal, state and local government web resources and services.